Time;durP1;ratioP1;P1;durP2;ratioP2;P2;SDS_P1;SDS_P2;PMS_P1;PMS_P2;Temp;Humidity;BMP_temperature;BMP_pressure;BME280_temperature;BME280_humidity;BME280_pressure;Samples;Min_cycle;Max_cycle;Signal;HPM_P1;HPM_P2
2023/12/11 00:02:44;;;;;;;36.13;17.58;;;;;;;2.32;65.61;99595.25;7819777;32;38941;-81
2023/12/11 00:07:03;;;;;;;32.72;16.12;;;;;;;2.19;66.25;99590.81;7819951;32;39020;-82
2023/12/11 00:11:19;;;;;;;30.92;16.92;;;;;;;2.76;64.33;99569.91;7819092;32;37668;-82
2023/12/11 00:15:36;;;;;;;29.45;15.65;;;;;;;2.68;64.60;99570.22;7819403;32;37092;-81
2023/12/11 00:19:52;;;;;;;31.80;16.20;;;;;;;2.65;64.66;99588.69;7819322;32;39954;-80
2023/12/11 00:24:09;;;;;;;29.98;16.83;;;;;;;2.87;63.91;99564.81;7819540;32;39875;-82
2023/12/11 00:28:25;;;;;;;38.17;19.10;;;;;;;2.71;64.42;99560.84;7819355;32;37869;-81
2023/12/11 00:32:42;;;;;;;39.05;18.00;;;;;;;2.45;65.07;99570.91;7818034;32;37911;-81
2023/12/11 00:36:58;;;;;;;30.30;16.05;;;;;;;2.77;63.92;99565.34;7819281;32;38983;-81
2023/12/11 00:41:16;;;;;;;33.10;16.65;;;;;;;2.52;64.85;99557.34;7819246;32;40093;-80
2023/12/11 00:45:32;;;;;;;32.10;17.35;;;;;;;2.53;64.86;99548.25;7819088;32;37884;-80
2023/12/11 00:49:49;;;;;;;35.58;18.70;;;;;;;2.71;64.13;99536.63;7819119;32;37175;-81
2023/12/11 00:54:05;;;;;;;50.03;22.13;;;;;;;2.18;66.04;99543.47;7819011;32;39325;-81
2023/12/11 00:58:22;;;;;;;41.67;21.90;;;;;;;2.63;64.92;99549.34;7818854;32;40704;-82
2023/12/11 01:02:38;;;;;;;44.05;22.75;;;;;;;2.03;66.42;99543.81;7818875;32;37957;-81
2023/12/11 01:06:54;;;;;;;51.10;23.17;;;;;;;2.54;65.30;99531.88;7817731;32;37200;-82
2023/12/11 01:11:10;;;;;;;49.17;21.83;;;;;;;2.48;65.30;99529.25;7818433;32;38988;-82
2023/12/11 01:15:27;;;;;;;50.53;23.92;;;;;;;2.34;65.56;99533.97;7818491;32;39856;-79
2023/12/11 01:19:43;;;;;;;86.97;25.83;;;;;;;2.31;66.15;99534.41;7818358;32;38806;-82
2023/12/11 01:23:59;;;;;;;60.30;24.12;;;;;;;1.47;68.78;99530.22;7818337;32;37863;-81
2023/12/11 01:28:16;;;;;;;63.75;25.83;;;;;;;2.16;66.39;99511.41;7817974;32;39962;-82
2023/12/11 01:32:32;;;;;;;53.30;24.58;;;;;;;2.29;65.91;99515.00;7818152;32;40660;-82
2023/12/11 01:36:48;;;;;;;48.47;23.55;;;;;;;2.57;65.58;99507.22;7817897;32;38536;-81
2023/12/11 01:41:05;;;;;;;59.15;25.42;;;;;;;2.75;65.23;99508.22;7817897;32;37836;-80
2023/12/11 01:45:21;;;;;;;51.33;22.85;;;;;;;2.47;65.92;99496.16;7817774;32;39359;-81
2023/12/11 01:49:38;;;;;;;48.35;25.12;;;;;;;2.51;65.89;99477.69;7817830;32;39927;-81
2023/12/11 01:53:54;;;;;;;49.53;24.67;;;;;;;2.56;65.91;99477.81;7816318;32;37754;-81
2023/12/11 01:58:12;;;;;;;45.25;23.65;;;;;;;2.41;66.31;99481.72;7816945;32;37060;-81
2023/12/11 02:02:29;;;;;;;43.90;21.70;;;;;;;2.54;66.21;99464.59;7816220;32;40402;-81
2023/12/11 02:06:46;;;;;;;40.17;20.10;;;;;;;2.57;65.78;99455.22;7816967;32;40012;-81
2023/12/11 02:11:03;;;;;;;40.22;20.23;;;;;;;2.67;65.10;99462.78;7817090;32;37662;-81
2023/12/11 02:15:42;;;;;;;39.30;19.80;;;;;;;1.69;68.40;99452.72;7762405;32;37406;-82
2023/12/11 02:19:58;;;;;;;40.65;20.50;;;;;;;1.85;68.18;99455.88;7763251;32;39846;-81
2023/12/11 02:24:29;;;;;;;38.28;19.55;;;;;;;2.10;66.92;99447.75;7766447;32;39999;-81
2023/12/11 02:28:46;;;;;;;37.42;17.67;;;;;;;2.15;66.78;99450.56;7765201;32;37959;-81
2023/12/11 02:33:02;;;;;;;31.85;18.75;;;;;;;2.28;66.40;99438.00;7766407;32;36919;-82
2023/12/11 02:37:18;;;;;;;35.83;17.27;;;;;;;1.93;67.29;99417.94;7766187;32;39772;-81
2023/12/11 02:41:35;;;;;;;32.65;18.27;;;;;;;1.91;67.53;99421.91;7766238;32;41621;-81
2023/12/11 02:45:51;;;;;;;40.30;18.48;;;;;;;1.66;67.94;99426.28;7766211;32;38768;-82
2023/12/11 02:50:08;;;;;;;39.30;18.27;;;;;;;1.64;68.58;99417.66;7766107;32;37898;-80
2023/12/11 02:54:24;;;;;;;34.47;17.60;;;;;;;1.96;67.36;99414.00;7765891;32;39189;-81
2023/12/11 02:58:43;;;;;;;29.25;15.20;;;;;;;1.44;69.34;99404.41;7765939;32;40539;-81
2023/12/11 03:02:59;;;;;;;36.90;18.17;;;;;;;1.66;68.21;99410.19;7765880;32;37938;-82
2023/12/11 03:07:15;;;;;;;30.67;15.55;;;;;;;1.29;69.32;99401.22;7765971;32;37122;-81
2023/12/11 03:11:32;;;;;;;33.13;15.43;;;;;;;1.40;68.71;99383.59;7771664;32;39313;-81
2023/12/11 03:15:48;;;;;;;30.20;15.15;;;;;;;1.11;69.07;99402.81;7819152;32;40558;-81
2023/12/11 03:20:06;;;;;;;32.83;15.23;;;;;;;1.14;69.16;99406.97;7820307;32;38410;-81
2023/12/11 03:24:22;;;;;;;36.25;14.23;;;;;;;1.09;68.99;99421.03;7820269;32;36916;-81
2023/12/11 03:28:38;;;;;;;27.77;14.48;;;;;;;1.25;69.07;99421.53;7820253;32;39006;-81
2023/12/11 03:32:55;;;;;;;28.98;15.73;;;;;;;1.34;68.72;99412.13;7820124;32;39948;-81
2023/12/11 03:37:11;;;;;;;26.80;14.65;;;;;;;1.32;68.76;99419.59;7820054;32;37788;-82
2023/12/11 03:41:28;;;;;;;30.25;14.02;;;;;;;1.18;69.51;99412.72;7820028;32;37937;-81
2023/12/11 03:45:44;;;;;;;32.28;15.13;;;;;;;1.46;68.73;99407.69;7818578;32;39164;-80
2023/12/11 03:50:00;;;;;;;30.00;15.55;;;;;;;1.39;68.94;99417.66;7819877;32;40599;-80
2023/12/11 03:54:17;;;;;;;31.20;16.23;;;;;;;1.31;69.41;99426.84;7819669;32;38114;-80
2023/12/11 03:58:33;;;;;;;37.75;15.88;;;;;;;1.39;69.44;99414.97;7819583;32;37175;-81
2023/12/11 04:02:49;;;;;;;33.90;16.02;;;;;;;1.27;70.20;99406.00;7819756;32;39991;-81
2023/12/11 04:07:05;;;;;;;36.67;16.12;;;;;;;1.38;69.85;99391.87;7819623;32;40744;-81
2023/12/11 04:11:22;;;;;;;36.55;16.42;;;;;;;1.37;69.51;99386.72;7819254;32;38767;-81
2023/12/11 04:15:38;;;;;;;34.00;16.67;;;;;;;1.31;69.86;99417.94;7819622;32;36793;-81
2023/12/11 04:19:55;;;;;;;28.23;15.20;;;;;;;1.36;70.17;99399.28;7819675;32;39251;-80
2023/12/11 04:24:12;;;;;;;41.95;16.15;;;;;;;1.47;69.10;99385.16;7819559;32;39933;-82
2023/12/11 04:28:30;;;;;;;36.80;16.02;;;;;;;1.46;69.65;99375.44;7819447;32;37781;-82
2023/12/11 04:32:46;;;;;;;36.88;15.52;;;;;;;1.29;70.41;99382.44;7818250;32;36888;-81
2023/12/11 04:37:03;;;;;;;35.50;16.35;;;;;;;1.27;70.80;99389.88;7819266;32;38963;-81
2023/12/11 04:41:19;;;;;;;34.15;15.70;;;;;;;1.39;70.54;99409.59;7819348;32;40218;-82
2023/12/11 04:45:35;;;;;;;35.63;15.27;;;;;;;1.22;71.22;99420.09;7818366;32;38584;-81
2023/12/11 04:49:52;;;;;;;38.00;17.70;;;;;;;0.94;72.62;99442.81;7819227;32;37113;-81
2023/12/11 04:54:08;;;;;;;43.63;16.23;;;;;;;1.36;70.83;99420.78;7819109;32;39809;-81
2023/12/11 04:58:26;;;;;;;33.35;15.98;;;;;;;1.69;69.64;99428.53;7818820;32;40859;-82
2023/12/11 05:02:43;;;;;;;41.20;17.20;;;;;;;1.60;69.87;99416.44;7818913;32;37757;-81
2023/12/11 05:06:59;;;;;;;33.75;16.17;;;;;;;1.16;71.83;99420.97;7818771;32;37889;-82
2023/12/11 05:11:16;;;;;;;35.83;16.42;;;;;;;1.62;70.21;99413.53;7818356;32;39278;-81
2023/12/11 05:15:32;;;;;;;43.92;17.50;;;;;;;1.71;69.83;99417.56;7818552;32;40016;-81
2023/12/11 05:19:48;;;;;;;34.22;16.15;;;;;;;1.92;69.04;99402.06;7818594;32;37526;-80
2023/12/11 05:24:05;;;;;;;35.13;17.20;;;;;;;1.83;69.13;99378.16;7818508;32;37213;-80
2023/12/11 05:28:21;;;;;;;38.90;16.67;;;;;;;1.77;69.56;99389.78;7818336;32;39311;-81
2023/12/11 05:32:38;;;;;;;31.70;15.57;;;;;;;1.84;69.62;99401.28;7818125;32;40714;-81
2023/12/11 05:36:55;;;;;;;35.40;15.70;;;;;;;1.94;69.43;99410.72;7817956;32;38792;-81
2023/12/11 05:41:11;;;;;;;40.78;16.15;;;;;;;1.85;69.98;99397.56;7816896;32;37057;-83
2023/12/11 05:45:28;;;;;;;30.35;15.63;;;;;;;1.99;69.27;99392.03;7817605;32;39290;-80
2023/12/11 05:49:44;;;;;;;31.95;16.37;;;;;;;2.00;69.38;99399.03;7817817;32;40602;-80
2023/12/11 05:54:00;;;;;;;42.00;16.70;;;;;;;1.92;69.62;99437.00;7817604;32;38435;-80
2023/12/11 05:58:17;;;;;;;33.92;15.02;;;;;;;2.12;69.20;99429.53;7821336;32;37243;-80
2023/12/11 06:02:33;;;;;;;34.60;15.05;;;;;;;2.41;68.16;99411.75;7821244;32;40029;-80
2023/12/11 06:06:50;;;;;;;32.30;14.32;;;;;;;2.24;68.93;99406.22;7821162;32;40879;-81
2023/12/11 06:11:06;;;;;;;31.58;14.27;;;;;;;1.96;69.54;99384.41;7820679;32;38385;-79
2023/12/11 06:15:23;;;;;;;33.60;15.60;;;;;;;2.39;68.98;99380.75;7821114;32;38627;-81
2023/12/11 06:19:42;;;;;;;28.23;13.98;;;;;;;1.97;70.00;99370.75;7821352;32;40036;-81
2023/12/11 06:23:59;;;;;;;33.05;16.23;;;;;;;2.42;68.89;99374.94;7820899;32;40797;-80
2023/12/11 06:28:15;;;;;;;33.08;15.32;;;;;;;2.29;69.22;99375.91;7820604;32;37830;-80
2023/12/11 06:32:32;;;;;;;31.85;15.35;;;;;;;2.43;68.74;99349.66;7820562;32;37980;-80
2023/12/11 06:36:48;;;;;;;29.02;14.15;;;;;;;2.27;68.92;99339.53;7820899;32;39296;-81
2023/12/11 06:41:04;;;;;;;32.10;14.73;;;;;;;2.31;68.65;99335.34;7820396;32;40563;-81
2023/12/11 06:45:21;;;;;;;30.35;14.75;;;;;;;2.39;68.47;99310.81;7820610;32;37968;-80
2023/12/11 06:49:37;;;;;;;30.27;14.90;;;;;;;2.46;68.50;99257.72;7820226;32;37334;-81
2023/12/11 06:53:58;;;;;;;31.20;13.52;;;;;;;2.78;67.24;99246.63;7820470;32;40110;-80
2023/12/11 06:58:15;;;;;;;29.55;14.27;;;;;;;2.45;68.32;99283.00;7820554;32;40874;-81
2023/12/11 07:02:31;;;;;;;27.02;13.73;;;;;;;2.43;68.39;99338.87;7820427;32;38639;-81
2023/12/11 07:06:48;;;;;;;30.50;14.07;;;;;;;2.37;69.36;99351.38;7820237;32;37093;-80
2023/12/11 07:11:05;;;;;;;29.67;14.87;;;;;;;2.67;68.67;99376.63;7820440;32;38937;-81
2023/12/11 07:15:21;;;;;;;25.83;14.45;;;;;;;2.87;67.31;99398.69;7820351;32;39886;-80
2023/12/11 07:19:37;;;;;;;30.65;14.35;;;;;;;2.92;66.34;99406.09;7820176;32;38671;-80
2023/12/11 07:23:54;;;;;;;32.28;15.10;;;;;;;2.75;67.11;99390.59;7819920;32;38050;-81
2023/12/11 07:28:11;;;;;;;28.87;13.70;;;;;;;2.71;67.27;99389.41;7820243;32;40150;-81
2023/12/11 07:32:27;;;;;;;32.53;14.35;;;;;;;2.64;67.52;99404.84;7818968;32;39926;-81
2023/12/11 07:36:44;;;;;;;27.27;14.52;;;;;;;2.50;67.67;99409.59;7819774;32;38723;-82
2023/12/11 07:41:00;;;;;;;25.48;13.68;;;;;;;2.61;68.02;99400.72;7820133;32;36852;-82
2023/12/11 07:45:23;;;;;;;35.78;16.45;;;;;;;2.66;67.84;99401.91;7819522;32;39967;-81
2023/12/11 07:49:40;;;;;;;36.17;16.90;;;;;;;2.55;68.03;99384.66;7819780;32;41495;-82
2023/12/11 07:53:58;;;;;;;29.20;15.38;;;;;;;2.61;68.05;99373.81;7819822;32;37562;-80
2023/12/11 07:58:15;;;;;;;29.80;13.98;;;;;;;2.68;67.76;99356.75;7818695;32;37204;-80
2023/12/11 08:02:31;;;;;;;30.52;14.98;;;;;;;2.63;68.40;99335.91;7819899;32;39263;-81
2023/12/11 08:06:47;;;;;;;31.45;15.07;;;;;;;2.80;68.03;99344.94;7819774;32;39865;-82
2023/12/11 08:11:04;;;;;;;33.05;15.05;;;;;;;2.32;69.75;99339.69;7819700;32;38816;-81
2023/12/11 08:15:20;;;;;;;28.40;14.38;;;;;;;2.94;67.88;99356.31;7819695;32;37648;-82
2023/12/11 08:19:38;;;;;;;28.92;15.95;;;;;;;2.95;67.40;99339.13;7818740;32;40272;-82
2023/12/11 08:23:55;;;;;;;36.05;16.10;;;;;;;3.18;66.73;99324.03;7819586;32;39974;-82
2023/12/11 08:28:11;;;;;;;30.45;15.50;;;;;;;3.36;65.76;99332.00;7819448;32;37953;-81
2023/12/11 08:32:27;;;;;;;33.05;15.57;;;;;;;3.35;65.91;99346.50;7819430;32;37143;-81
2023/12/11 08:36:44;;;;;;;34.53;16.08;;;;;;;3.04;67.00;99334.22;7819611;32;39278;-81
2023/12/11 08:41:00;;;;;;;28.98;15.77;;;;;;;3.14;66.91;99318.28;7819352;32;39629;-76
2023/12/11 08:45:17;;;;;;;34.83;15.95;;;;;;;3.31;70.08;99318.41;7819181;32;38746;-80
2023/12/11 08:49:33;;;;;;;35.70;15.90;;;;;;;3.57;67.77;99310.88;7819226;32;37180;-81
2023/12/11 08:53:49;;;;;;;29.60;14.60;;;;;;;2.84;67.80;99318.38;7819335;32;39189;-81
2023/12/11 08:58:06;;;;;;;32.85;16.20;;;;;;;3.36;65.98;99325.75;7818961;32;39982;-81
2023/12/11 09:02:23;;;;;;;31.08;15.35;;;;;;;2.78;67.28;99338.16;7818932;32;37819;-81
2023/12/11 09:06:39;;;;;;;29.65;14.98;;;;;;;3.12;67.16;99335.72;7818913;32;37042;-82
2023/12/11 09:10:55;;;;;;;35.75;15.77;;;;;;;3.09;67.10;99320.06;7818751;32;39943;-81
2023/12/11 09:15:12;;;;;;;31.23;14.57;;;;;;;3.44;66.11;99328.09;7818628;32;39995;-83
2023/12/11 09:19:28;;;;;;;28.65;15.85;;;;;;;3.52;65.95;99335.81;7818398;32;38492;-71
2023/12/11 09:24:03;;;;;;;26.50;14.73;;;;;;;4.05;70.53;99338.50;7818468;32;37379;-81
2023/12/11 09:28:20;;;;;;;27.62;14.60;;;;;;;4.07;66.52;99339.91;7818660;32;39415;-82
2023/12/11 09:32:37;;;;;;;29.40;14.63;;;;;;;3.89;65.36;99335.50;7821679;32;39688;-81
2023/12/11 09:36:54;;;;;;;24.67;13.18;;;;;;;3.86;65.04;99327.06;7821505;32;38891;-81
2023/12/11 09:41:11;;;;;;;32.15;14.40;;;;;;;4.23;63.55;99332.13;7820347;32;37711;-81
2023/12/11 09:45:28;;;;;;;26.75;14.05;;;;;;;3.94;64.00;99326.69;7821362;32;39237;-82
2023/12/11 09:49:48;;;;;;;33.85;14.23;;;;;;;3.82;64.67;99312.44;7820118;32;39642;-82
2023/12/11 09:54:05;;;;;;;29.58;14.23;;;;;;;3.77;64.99;99321.25;7821155;32;38711;-81
2023/12/11 09:58:22;;;;;;;26.17;14.00;;;;;;;3.82;64.95;99318.66;7821362;31;37832;-82
2023/12/11 10:02:42;;;;;;;23.85;12.75;;;;;;;4.26;63.54;99323.53;7821247;32;39300;-82
2023/12/11 10:06:59;;;;;;;26.98;13.65;;;;;;;4.03;64.49;99313.66;7821121;32;39908;-81
2023/12/11 10:11:17;;;;;;;26.92;12.82;;;;;;;4.19;63.62;99298.56;7819932;32;37967;-80
2023/12/11 10:15:35;;;;;;;33.22;13.95;;;;;;;4.11;64.06;99299.78;7820290;32;37164;-82
2023/12/11 10:19:52;;;;;;;25.15;13.82;;;;;;;3.82;64.72;99297.06;7821004;32;40143;-81
2023/12/11 10:24:13;;;;;;;28.45;14.32;;;;;;;3.78;65.64;99290.53;7821063;32;39790;-81
2023/12/11 10:28:30;;;;;;;28.48;13.18;;;;;;;4.09;64.51;99291.13;7820942;32;38641;-81
2023/12/11 10:32:48;;;;;;;31.33;14.10;;;;;;;4.28;64.32;99294.44;7821018;32;37931;-83
2023/12/11 10:37:04;;;;;;;33.20;14.70;;;;;;;4.51;63.59;99280.78;7820873;32;40213;-82
2023/12/11 10:41:27;;;;;;;26.65;13.52;;;;;;;4.53;64.05;99268.94;7820290;32;40607;-82
2023/12/11 10:45:43;;;;;;;30.90;14.10;;;;;;;4.41;63.55;99267.13;7820224;31;35830;-81
2023/12/11 10:50:06;;;;;;;23.85;12.82;;;;;;;4.81;62.56;99247.25;7820336;32;37888;-83
2023/12/11 10:54:22;;;;;;;22.73;12.48;;;;;;;4.70;62.95;99227.34;7820881;32;38987;-82
2023/12/11 10:58:39;;;;;;;28.52;13.10;;;;;;;5.10;61.15;99222.78;7819253;32;40160;-81
2023/12/11 11:02:57;;;;;;;34.88;13.60;;;;;;;4.34;63.67;99220.59;7819866;32;37991;-85
2023/12/11 11:07:40;;;;;;;27.58;14.07;;;;;;;4.59;63.28;99220.19;7793085;32;36667;-86
2023/12/11 11:12:03;;;;;;;29.23;13.60;;;;;;;4.75;62.17;99231.22;7820280;32;39999;-83
2023/12/11 11:16:20;;;;;;;28.52;13.60;;;;;;;4.64;62.32;99227.53;7820110;32;40764;-87
2023/12/11 11:20:38;;;;;;;26.90;14.27;;;;;;;4.54;62.72;99222.00;7819637;32;38413;-85
2023/12/11 11:24:55;;;;;;;33.42;14.82;;;;;;;4.69;62.28;99208.69;7819324;32;37207;-83
2023/12/11 11:29:31;;;;;;;29.33;15.15;;;;;;;4.29;64.11;99196.22;7819449;32;39879;-83
2023/12/11 11:33:52;;;;;;;31.48;14.38;;;;;;;4.46;63.75;99193.50;7818376;32;39943;-82
2023/12/11 11:38:09;;;;;;;33.45;15.25;;;;;;;4.59;63.26;99198.59;7819933;32;37047;-83
2023/12/11 11:42:35;;;;;;;31.45;15.48;;;;;;;4.92;62.55;99179.88;7818958;32;37100;-84
2023/12/11 11:46:57;;;;;;;30.50;15.80;;;;;;;4.64;63.19;99170.81;7819401;32;40037;-83
2023/12/11 11:51:14;;;;;;;32.20;15.02;;;;;;;4.76;63.11;99182.38;7819585;32;39508;-84
2023/12/11 11:55:30;;;;;;;29.20;15.18;;;;;;;4.44;63.63;99166.75;7817741;32;37571;-83
2023/12/11 11:59:47;;;;;;;36.15;16.15;;;;;;;4.33;64.19;99168.50;7819686;32;37271;-83
2023/12/11 12:04:03;;;;;;;36.20;15.40;;;;;;;4.42;64.16;99171.59;7819741;32;39142;-84
2023/12/11 12:08:20;;;;;;;39.13;17.25;;;;;;;4.62;63.61;99183.75;7819625;32;39997;-84
2023/12/11 12:12:39;;;;;;;33.13;16.60;;;;;;;4.47;63.55;99206.78;7819425;32;37853;-84
2023/12/11 12:16:56;;;;;;;33.55;17.08;;;;;;;4.54;63.42;99208.50;7818326;32;37231;-83
2023/12/11 12:21:13;;;;;;;32.97;16.52;;;;;;;4.44;64.06;99218.06;7819645;32;39260;-84
2023/12/11 12:25:33;;;;;;;39.40;17.67;;;;;;;4.49;63.89;99226.22;7819553;32;40472;-83
2023/12/11 12:29:51;;;;;;;33.42;15.90;;;;;;;4.73;63.45;99215.25;7819401;32;37603;-84
2023/12/11 12:34:08;;;;;;;32.90;15.32;;;;;;;4.75;63.16;99207.72;7819369;32;37091;-84
2023/12/11 12:38:26;;;;;;;37.85;16.98;;;;;;;4.95;62.67;99193.69;7817918;32;39948;-83
2023/12/11 12:42:43;;;;;;;39.83;18.55;;;;;;;4.67;63.58;99194.63;7818172;32;40484;-83
2023/12/11 12:47:02;;;;;;;32.67;16.37;;;;;;;4.91;62.78;99184.44;7819232;32;37839;-83
2023/12/11 12:51:19;;;;;;;36.60;17.35;;;;;;;4.98;62.47;99184.28;7819131;32;37251;-84
2023/12/11 12:55:36;;;;;;;31.15;15.25;;;;;;;4.88;63.09;99174.97;7819219;32;40015;-70
2023/12/11 12:59:52;;;;;;;39.25;18.40;;;;;;;5.31;68.38;99171.72;7819366;32;40691;-83
2023/12/11 13:04:10;;;;;;;41.47;17.23;;;;;;;5.25;64.63;99152.72;7818431;32;37919;-83
2023/12/11 13:08:27;;;;;;;37.03;17.65;;;;;;;5.09;63.10;99145.53;7818900;32;37081;-84
2023/12/11 13:12:43;;;;;;;38.80;18.83;;;;;;;5.23;62.17;99168.38;7813189;32;172467;-84
2023/12/11 13:16:59;;;;;;;38.60;18.15;;;;;;;5.17;62.12;99171.28;7817483;32;40712;-85
2023/12/11 13:21:16;;;;;;;36.15;17.75;;;;;;;4.73;63.64;99185.56;7817350;32;37876;-84
2023/12/11 13:25:32;;;;;;;39.25;18.95;;;;;;;5.00;62.58;99182.97;7817208;32;37958;-84
2023/12/11 13:29:48;;;;;;;43.03;18.85;;;;;;;4.89;62.83;99182.00;7818328;32;39761;-84
2023/12/11 13:34:05;;;;;;;38.90;18.65;;;;;;;4.60;63.49;99199.41;7818104;32;40037;-84
2023/12/11 13:38:21;;;;;;;39.50;18.23;;;;;;;4.79;63.07;99181.84;7817928;32;37861;-84
2023/12/11 13:42:38;;;;;;;41.60;20.02;;;;;;;4.75;63.02;99179.91;7818200;32;37094;-85
2023/12/11 13:46:54;;;;;;;37.22;17.62;;;;;;;4.75;63.11;99194.22;7818038;32;38899;-84
2023/12/11 13:51:11;;;;;;;41.47;19.12;;;;;;;4.65;63.38;99178.69;7817837;32;40246;-84
2023/12/11 13:55:28;;;;;;;41.08;19.12;;;;;;;4.82;62.74;99164.34;7817701;32;37797;-87
2023/12/11 13:59:44;;;;;;;43.25;17.85;;;;;;;4.83;62.41;99150.59;7817618;32;37802;-83
2023/12/11 14:04:01;;;;;;;40.20;18.55;;;;;;;4.76;62.77;99136.47;7817469;32;39325;-83
2023/12/11 14:08:17;;;;;;;42.58;20.08;;;;;;;4.47;63.53;99163.56;7817317;32;40801;-82
2023/12/11 14:12:37;;;;;;;43.28;19.17;;;;;;;4.25;64.22;99166.19;7817007;32;37890;-83
2023/12/11 14:16:53;;;;;;;42.05;19.42;;;;;;;4.03;64.89;99160.72;7818981;32;37089;-82
2023/12/11 14:21:10;;;;;;;36.28;18.65;;;;;;;4.08;64.77;99158.09;7821006;32;39242;-82
2023/12/11 14:25:26;;;;;;;48.00;20.73;;;;;;;4.10;65.61;99142.47;7821092;32;39667;-82
2023/12/11 14:29:43;;;;;;;47.00;21.42;;;;;;;3.90;65.97;99142.16;7821047;32;38658;-82
2023/12/11 14:33:59;;;;;;;47.60;20.35;;;;;;;4.11;65.37;99148.72;7817801;32;37141;-82
2023/12/11 14:38:16;;;;;;;42.95;20.27;;;;;;;4.19;65.07;99150.16;7818370;32;39268;-81
2023/12/11 14:42:33;;;;;;;46.25;20.85;;;;;;;4.13;64.69;99144.69;7819924;32;39685;-82
2023/12/11 14:46:49;;;;;;;49.33;19.80;;;;;;;3.64;66.36;99148.97;7819279;32;38589;-82
2023/12/11 14:51:06;;;;;;;46.00;19.62;;;;;;;3.66;66.66;99154.97;7820229;32;37945;-81
2023/12/11 14:55:22;;;;;;;43.20;19.58;;;;;;;3.71;66.77;99155.87;7819937;32;39010;-81
2023/12/11 14:59:41;;;;;;;48.13;21.10;;;;;;;4.21;64.82;99161.53;7819916;32;40897;-82
2023/12/11 15:03:57;;;;;;;41.17;18.15;;;;;;;3.92;66.09;99169.72;7820067;32;37853;-82
2023/12/11 15:08:13;;;;;;;44.70;20.62;;;;;;;4.45;63.75;99157.63;7819584;32;37821;-82
2023/12/11 15:12:30;;;;;;;46.83;20.20;;;;;;;4.10;64.83;99166.75;7819738;32;40030;-82
2023/12/11 15:16:47;;;;;;;49.08;21.60;;;;;;;3.71;65.89;99155.87;7819504;32;41543;-82
2023/12/11 15:21:03;;;;;;;42.83;19.37;;;;;;;3.57;66.92;99182.28;7819745;32;38635;-81
2023/12/11 15:25:20;;;;;;;45.35;20.83;;;;;;;4.01;65.41;99162.84;7819634;32;37917;-81
2023/12/11 15:29:36;;;;;;;52.85;20.65;;;;;;;3.81;65.76;99159.78;7819212;32;39394;-81
2023/12/11 15:33:53;;;;;;;56.53;20.75;;;;;;;3.65;66.24;99166.78;7819703;32;39896;-82
2023/12/11 15:38:09;;;;;;;42.45;20.52;;;;;;;3.65;66.24;99162.22;7818929;32;38703;-82
2023/12/11 15:42:25;;;;;;;47.28;20.23;;;;;;;3.52;66.98;99154.44;7819466;32;37093;-82
2023/12/11 15:46:42;;;;;;;46.40;20.48;;;;;;;3.37;67.32;99163.03;7819486;32;39351;-82
2023/12/11 15:51:00;;;;;;;51.00;20.42;;;;;;;3.88;65.89;99155.06;7819024;32;39966;-81
2023/12/11 15:55:16;;;;;;;53.58;21.67;;;;;;;3.67;66.40;99145.78;7819032;32;37784;-81
2023/12/11 15:59:32;;;;;;;47.40;19.08;;;;;;;3.48;67.10;99158.66;7819359;32;37677;-82
2023/12/11 16:03:49;;;;;;;46.72;19.45;;;;;;;3.73;66.54;99153.75;7819559;32;39291;-82
2023/12/11 16:08:06;;;;;;;43.92;19.62;;;;;;;3.69;66.86;99131.03;7818990;32;40897;-82
2023/12/11 16:12:23;;;;;;;42.15;19.08;;;;;;;3.88;66.11;99120.00;7818973;32;37604;-82
2023/12/11 16:16:39;;;;;;;47.33;21.58;;;;;;;3.86;66.18;99125.63;7817993;32;37071;-82
2023/12/11 16:20:58;;;;;;;41.22;19.52;;;;;;;3.67;66.59;99103.47;7818841;32;38900;-83
2023/12/11 16:25:15;;;;;;;43.22;20.00;;;;;;;3.88;65.25;99109.22;7818727;32;40005;-82
2023/12/11 16:29:34;;;;;;;43.00;19.52;;;;;;;3.78;65.87;99114.44;7818872;32;37879;-81
2023/12/11 16:33:50;;;;;;;38.33;17.48;;;;;;;3.82;65.70;99102.94;7819047;32;36850;-83
2023/12/11 16:38:07;;;;;;;40.25;18.00;;;;;;;3.56;66.35;99120.53;7817886;32;39425;-82
2023/12/11 16:42:26;;;;;;;41.33;18.65;;;;;;;3.83;65.59;99130.69;7818374;32;40735;-81
2023/12/11 16:46:45;;;;;;;43.75;18.77;;;;;;;3.91;65.48;99122.22;7818699;32;38639;-82
2023/12/11 16:51:02;;;;;;;42.50;18.00;;;;;;;3.69;66.18;99125.63;7818321;32;37667;-82
2023/12/11 16:55:19;;;;;;;33.03;16.17;;;;;;;3.70;66.28;99132.66;7818545;32;39341;-83
2023/12/11 16:59:35;;;;;;;53.38;18.50;;;;;;;3.62;66.83;99134.91;7818139;32;40099;-82
2023/12/11 17:03:51;;;;;;;40.33;17.70;;;;;;;3.29;67.56;99152.63;7818353;32;37832;-82
2023/12/11 17:08:08;;;;;;;42.53;17.45;;;;;;;3.26;68.26;99170.13;7818865;32;37944;-81
2023/12/11 17:12:25;;;;;;;40.25;17.92;;;;;;;3.67;67.14;99164.66;7818779;32;39016;-81
2023/12/11 17:16:42;;;;;;;37.97;18.40;;;;;;;3.78;66.32;99179.13;7818712;32;40090;-81
2023/12/11 17:20:58;;;;;;;39.70;17.23;;;;;;;3.69;66.75;99186.81;7818432;32;38716;-82
2023/12/11 17:25:14;;;;;;;32.83;16.95;;;;;;;3.74;66.36;99198.53;7818584;32;37689;-82
2023/12/11 17:29:31;;;;;;;40.67;16.92;;;;;;;3.98;65.29;99155.22;7818394;32;40043;-82
2023/12/11 17:33:50;;;;;;;39.58;16.87;;;;;;;3.94;65.53;99146.00;7818234;32;39917;-82
2023/12/11 17:38:06;;;;;;;36.55;16.10;;;;;;;3.34;67.49;99137.38;7818247;32;37724;-81
2023/12/11 17:42:23;;;;;;;38.92;16.37;;;;;;;3.29;67.67;99131.87;7814102;32;37624;-81
2023/12/11 17:46:40;;;;;;;34.15;16.45;;;;;;;3.30;67.67;99133.53;7790698;32;40050;-82
2023/12/11 17:50:56;;;;;;;34.83;17.65;;;;;;;3.79;65.98;99135.75;7792192;32;40509;-81
2023/12/11 17:55:13;;;;;;;35.28;17.05;;;;;;;3.68;66.37;99160.91;7793987;32;38708;-80
2023/12/11 17:59:30;;;;;;;37.40;16.37;;;;;;;3.49;67.55;99189.94;7793948;32;37153;-81
2023/12/11 18:03:46;;;;;;;37.65;15.60;;;;;;;3.30;68.20;99141.63;7793899;32;39451;-81
2023/12/11 18:08:02;;;;;;;39.13;18.17;;;;;;;3.31;67.73;99119.03;7793881;32;40704;-81
2023/12/11 18:12:19;;;;;;;34.95;16.37;;;;;;;3.63;66.68;99115.00;7793670;32;38710;-81
2023/12/11 18:16:35;;;;;;;31.40;16.50;;;;;;;3.22;68.31;99116.94;7793783;32;37098;-81
2023/12/11 18:20:51;;;;;;;29.23;14.68;;;;;;;3.47;67.49;99138.97;7793667;32;39256;-81
2023/12/11 18:25:08;;;;;;;28.60;14.65;;;;;;;3.55;67.12;99130.50;7793695;32;40972;-81
2023/12/11 18:29:25;;;;;;;32.78;14.95;;;;;;;3.68;67.10;99115.91;7793524;32;38020;-81
2023/12/11 18:33:42;;;;;;;30.75;14.23;;;;;;;3.82;66.46;99113.72;7793258;32;37722;-81
2023/12/11 18:37:59;;;;;;;30.10;14.25;;;;;;;3.90;66.17;99115.19;7793593;32;39340;-81
2023/12/11 18:42:15;;;;;;;32.97;15.30;;;;;;;3.78;66.72;99114.44;7793451;32;40123;-81
2023/12/11 18:46:31;;;;;;;28.38;13.85;;;;;;;3.56;67.25;99123.25;7793279;32;38663;-81
2023/12/11 18:50:48;;;;;;;27.10;14.02;;;;;;;3.92;65.95;99129.25;7793262;32;37192;-81
2023/12/11 18:55:04;;;;;;;26.52;12.90;;;;;;;3.90;65.79;99129.50;7793260;32;39980;-81
2023/12/11 18:59:21;;;;;;;25.15;12.63;;;;;;;3.88;65.87;99103.81;7807033;32;40761;-81
2023/12/11 19:03:37;;;;;;;24.25;12.30;;;;;;;4.04;64.94;99062.56;7819933;32;38668;-81
2023/12/11 19:07:55;;;;;;;21.55;10.48;;;;;;;3.79;65.30;99095.31;7819976;32;37103;-79
2023/12/11 19:12:11;;;;;;;18.90;10.63;;;;;;;3.64;66.05;99066.25;7819339;32;39203;-80
2023/12/11 19:16:27;;;;;;;18.95;10.70;;;;;;;3.48;66.61;99067.03;7819162;32;40512;-81
2023/12/11 19:20:44;;;;;;;23.02;10.70;;;;;;;3.21;68.27;99075.72;7819613;32;37924;-82
2023/12/11 19:25:01;;;;;;;22.92;10.95;;;;;;;3.61;67.21;99082.91;7819894;32;36776;-83
2023/12/11 19:29:17;;;;;;;20.20;10.98;;;;;;;3.50;67.35;99071.13;7820405;32;39354;-82
2023/12/11 19:33:34;;;;;;;20.85;10.35;;;;;;;3.61;67.09;99074.81;7820135;32;39901;-82
2023/12/11 19:37:50;;;;;;;19.27;10.90;;;;;;;3.79;66.59;99086.41;7820104;32;37559;-82
2023/12/11 19:42:07;;;;;;;19.80;10.10;;;;;;;3.85;66.24;99090.84;7819480;32;37941;-82
2023/12/11 19:46:23;;;;;;;21.05;12.10;;;;;;;3.88;66.06;99093.03;7819952;32;39917;-82
2023/12/11 19:50:39;;;;;;;20.27;11.75;;;;;;;3.78;66.29;99090.16;7819956;32;39889;-82
2023/12/11 19:54:56;;;;;;;21.42;13.05;;;;;;;4.00;65.59;99079.47;7819819;32;37978;-82